Hauptseite
METAR-TAF:

METAR-TAF

Flughäfen :

Flughafen Nouakchott-Oumtounsy

Nouakchott, Mauretanien

Breite: 18-18-36N, Länge: 015-58-11W, Höhe: 3 m

Beobachtung

Neuester Wetterbericht von vor 43 Minuten, um 18:00 UTC
Wind 11 kt aus Ost/Nordost
Temperatur 27°C
Luftfeuchtigkeit 26%
Luftdruck 1014 hPa
Sichtweite: 6000 m

METAR: GQNO 071800Z 06011KT 6000 NSC 27/06 Q1014 NOSIG

Zeit: 18:43 (18:43 UTC)

Prognose

Neuester Wetterbericht von vor 1 Stunde und 43 Minuten, um 17:00 UTC
Gültige Prognose vom 07 um 18 UTC bis 08 um 24 UTC
Wind 12 kt aus Nord/Nordost
Sichtweite: 7000 m

TAF: GQNO 071700Z 0718/0824 03012KT 7000 NSC

Wetterbeobachtungen und Prognosen von mehr als 4000 Flughäfen (METAR und TAF Bericht).

Die verfügbaren Stationen werden durch gelbe und rote Markierungen auf der Karte dargestellt.

Führen Sie die Maus auf sie, um den Namen der Station zu sehen.

Darauf klicken, um die Beobachtung von Wetterbeobachtungen und Prognosen zu sehen.

Um die Karte zu ändern : klicken Sie auf den grünen Tasten mit einem schwarzen Kreuz Zum Vergrößern, auf den grünen Button mit einem Gedankenstrich zu verkleinern, oder auf die grünen Pfeile für benachbarte Karten.


METAR-TAF: